Tawakoni's Hourly Summary for Wednesday, July 11, 2018
Hour Temp
(f)
RH
(%)
Solar Rad.
(MJ/m2)
Rainfall
(in)
Wind
(mph)
7/11/2018 12:00 AM 75 84 0 0 0
7/11/2018 1:00 AM 74 85 0 0 0
7/11/2018 2:00 AM 73 91 0 0 0
7/11/2018 3:00 AM 74 91 0 0 0
7/11/2018 4:00 AM 73 91 0 0 0
7/11/2018 5:00 AM 74 86 0 0 0
7/11/2018 6:00 AM 73 86 0 0 0
7/11/2018 7:00 AM 73 93 0.03 0 0
7/11/2018 8:00 AM 74 87 0.26 0 0
7/11/2018 9:00 AM 77 78 0.63 0 0
7/11/2018 10:00 AM 82 64 1.62 0 0
7/11/2018 11:00 AM 86 54 2.3 0 0
7/11/2018 12:00 PM 88 51 2.19 0 0
7/11/2018 1:00 PM 90 46 2.67 0 0
7/11/2018 2:00 PM 90 42 2.29 0 0
7/11/2018 3:00 PM 93 35 2.88 0 0
7/11/2018 4:00 PM 92 35 1.07 0 0
7/11/2018 5:00 PM 79 53 0.21 0.02 5.88
7/11/2018 6:00 PM 77 73 0.26 0.01 4.31
7/11/2018 7:00 PM 78 68 0.12 0 5.73
7/11/2018 8:00 PM 78 65 0.07 0 2.5
7/11/2018 9:00 PM 78 69 0.02 0.01 4.02
7/11/2018 10:00 PM 77 71 0 0 4.35
7/11/2018 11:00 PM 76 75 0 0 1.14
Data Summary 79 69 16.62 0.04 1.16